Time;durP1;ratioP1;P1;durP2;ratioP2;P2;SDS_P1;SDS_P2;PMS_P1;PMS_P2;Temp;Humidity;BMP_temperature;BMP_pressure;BME280_temperature;BME280_humidity;BME280_pressure;Samples;Min_cycle;Max_cycle;Signal;HPM_P1;HPM_P2
2023/06/08 00:01:54;;;;;;;4.20;2.72;;;10.70;99.90;;;;;;5057692;28;20041;-57
2023/06/08 00:04:23;;;;;;;5.65;3.60;;;10.70;99.90;;;;;;5063416;28;20391;-61
2023/06/08 00:06:52;;;;;;;5.22;2.85;;;10.60;99.90;;;;;;5070531;28;20063;-57
2023/06/08 00:09:21;;;;;;;4.35;2.72;;;10.60;99.90;;;;;;5071854;28;20044;-56
2023/06/08 00:11:49;;;;;;;6.90;3.00;;;10.50;99.90;;;;;;5065658;28;20426;-57
2023/06/08 00:14:17;;;;;;;5.05;2.85;;;10.50;99.90;;;;;;5079166;28;20067;-56
2023/06/08 00:16:48;;;;;;;6.97;2.53;;;10.50;99.90;;;;;;5065891;28;20041;-57
2023/06/08 00:19:16;;;;;;;4.45;3.10;;;10.40;99.90;;;;;;5071562;28;20384;-56
2023/06/08 00:21:48;;;;;;;6.43;2.50;;;10.40;99.90;;;;;;5069639;28;20531;-56
2023/06/08 00:24:19;;;;;;;3.10;2.55;;;10.40;99.90;;;;;;5083724;28;20048;-56
2023/06/08 00:26:47;;;;;;;5.88;3.15;;;10.40;99.90;;;;;;5084697;28;20044;-56
2023/06/08 00:29:15;;;;;;;4.32;2.92;;;10.30;99.90;;;;;;5053731;28;20049;-56
2023/06/08 00:31:46;;;;;;;11.23;3.22;;;10.30;99.90;;;;;;5057194;28;20040;-57
2023/06/08 00:34:16;;;;;;;5.60;2.72;;;10.30;99.90;;;;;;5058816;28;20053;-57
2023/06/08 00:36:46;;;;;;;3.85;2.72;;;10.30;99.90;;;;;;5063405;28;20350;-56
2023/06/08 00:39:14;;;;;;;3.72;2.78;;;10.30;99.90;;;;;;5071199;28;20048;-57
2023/06/08 00:41:42;;;;;;;5.60;3.13;;;10.20;99.90;;;;;;5066566;28;20037;-58
2023/06/08 00:44:10;;;;;;;4.43;2.45;;;10.20;99.90;;;;;;5067002;28;20056;-56
2023/06/08 00:46:38;;;;;;;5.72;2.90;;;10.20;99.90;;;;;;5069090;28;20040;-56
2023/06/08 00:49:08;;;;;;;3.42;2.63;;;10.20;99.90;;;;;;5069318;28;20044;-56
2023/06/08 00:51:41;;;;;;;5.77;2.60;;;10.20;99.90;;;;;;5070034;28;20063;-56
2023/06/08 00:54:12;;;;;;;9.85;4.10;;;10.10;99.90;;;;;;5070633;28;20294;-56
2023/06/08 00:56:40;;;;;;;6.78;2.90;;;10.10;99.90;;;;;;5069065;28;20059;-56
2023/06/08 00:59:10;;;;;;;4.25;3.10;;;10.10;99.90;;;;;;5061259;28;20500;-56
2023/06/08 01:01:38;;;;;;;5.25;2.72;;;10.10;99.90;;;;;;5050354;28;20041;-56
2023/06/08 01:04:07;;;;;;;5.72;2.67;;;10.10;99.90;;;;;;5057247;28;20051;-57
2023/06/08 01:06:48;;;;;;;5.03;2.60;;;10.10;99.90;;;;;;5065738;28;20053;-56
2023/06/08 01:09:39;;;;;;;6.60;2.60;;;10.10;99.90;;;;;;5068443;28;20784;-56
2023/06/08 01:12:17;;;;;;;5.70;2.70;;;10.00;99.90;;;;;;5076081;28;20048;-57
2023/06/08 01:14:52;;;;;;;4.93;3.05;;;10.00;99.90;;;;;;5087014;28;20051;-56
2023/06/08 01:17:37;;;;;;;3.67;2.67;;;10.00;99.90;;;;;;5065614;28;20049;-57
2023/06/08 01:20:22;;;;;;;3.70;2.70;;;10.00;99.90;;;;;;5035292;28;20041;-56
2023/06/08 01:23:20;;;;;;;4.38;2.90;;;9.90;99.90;;;;;;5049060;28;20045;-55
2023/06/08 01:25:50;;;;;;;4.15;2.80;;;9.90;99.90;;;;;;5049345;28;20048;-57
2023/06/08 01:28:18;;;;;;;3.83;2.70;;;9.90;99.90;;;;;;5068294;28;20067;-57
2023/06/08 01:30:50;;;;;;;4.65;2.80;;;9.90;99.90;;;;;;5067320;28;20048;-56
2023/06/08 01:33:24;;;;;;;4.03;2.42;;;9.80;99.90;;;;;;5053068;28;20049;-56
2023/06/08 01:36:23;;;;;;;4.65;2.47;;;9.80;99.90;;;;;;5058005;28;20048;-57
2023/06/08 01:38:54;;;;;;;5.55;2.67;;;9.80;99.90;;;;;;5063246;28;20605;-56
2023/06/08 01:41:31;;;;;;;3.30;2.55;;;9.80;99.90;;;;;;5054063;28;20432;-56
2023/06/08 01:44:00;;;;;;;4.85;3.30;;;9.70;99.90;;;;;;5053368;28;20041;-56
2023/06/08 01:46:29;;;;;;;3.67;2.90;;;9.70;99.90;;;;;;5061804;28;20392;-55
2023/06/08 01:49:01;;;;;;;4.22;3.00;;;9.70;99.90;;;;;;5073155;28;20799;-56
2023/06/08 01:51:30;;;;;;;5.15;2.75;;;9.70;99.90;;;;;;5055972;28;20468;-56
2023/06/08 01:54:07;;;;;;;5.20;3.38;;;9.70;99.90;;;;;;5073314;28;20045;-56
2023/06/08 01:56:35;;;;;;;5.70;2.47;;;9.70;99.90;;;;;;5072817;28;20521;-56
2023/06/08 01:59:03;;;;;;;4.47;3.03;;;9.70;99.90;;;;;;5071220;28;20059;-56
2023/06/08 02:01:31;;;;;;;4.38;2.80;;;9.60;99.90;;;;;;5071765;28;20044;-55
2023/06/08 02:03:59;;;;;;;4.90;3.25;;;9.60;99.90;;;;;;5073002;28;20060;-56
2023/06/08 02:06:27;;;;;;;6.38;3.20;;;9.60;99.90;;;;;;5069523;28;20048;-56
2023/06/08 02:08:55;;;;;;;8.60;3.30;;;9.60;99.90;;;;;;5071823;28;20517;-55
2023/06/08 02:11:23;;;;;;;6.05;3.10;;;9.60;99.90;;;;;;5071489;28;20060;-55
2023/06/08 02:13:50;;;;;;;5.50;3.60;;;9.60;99.90;;;;;;5092304;28;20059;-55
2023/06/08 02:16:18;;;;;;;4.45;3.30;;;9.60;99.90;;;;;;5090414;28;20040;-56
2023/06/08 02:18:49;;;;;;;6.25;3.40;;;9.50;99.90;;;;;;5072812;28;20071;-56
2023/06/08 02:21:20;;;;;;;5.05;3.15;;;9.50;99.90;;;;;;5072674;28;20044;-56
2023/06/08 02:23:47;;;;;;;7.85;3.70;;;9.50;99.90;;;;;;5071350;28;20051;-56
2023/06/08 02:26:16;;;;;;;5.13;3.35;;;9.50;99.90;;;;;;5072347;28;20045;-59
2023/06/08 02:28:44;;;;;;;5.13;3.33;;;9.50;99.90;;;;;;5067930;28;20400;-56
2023/06/08 02:31:12;;;;;;;6.25;3.65;;;9.50;99.90;;;;;;5052655;28;20052;-56
2023/06/08 02:33:41;;;;;;;6.45;3.50;;;9.40;99.90;;;;;;5051401;28;20047;-55
2023/06/08 02:36:09;;;;;;;6.82;3.40;;;9.40;99.90;;;;;;5051212;28;20053;-55
2023/06/08 02:38:38;;;;;;;7.47;3.83;;;9.40;99.90;;;;;;5052339;28;20051;-56
2023/06/08 02:41:08;;;;;;;5.90;3.60;;;9.40;99.90;;;;;;5070990;28;20040;-55
2023/06/08 02:43:40;;;;;;;4.43;3.63;;;9.40;99.90;;;;;;5089401;28;20403;-55
2023/06/08 02:46:08;;;;;;;6.75;3.95;;;9.40;99.90;;;;;;5091509;28;20403;-56
2023/06/08 02:48:36;;;;;;;6.30;3.70;;;9.30;99.90;;;;;;5074360;28;20048;-56
2023/06/08 02:51:04;;;;;;;6.03;3.90;;;9.40;99.90;;;;;;5091081;28;20044;-55
2023/06/08 02:53:32;;;;;;;5.45;3.47;;;9.40;99.90;;;;;;5061912;28;20059;-56
2023/06/08 02:56:00;;;;;;;5.25;3.75;;;9.30;99.90;;;;;;5071913;28;20052;-55
2023/06/08 02:58:30;;;;;;;7.07;3.22;;;9.30;99.90;;;;;;5053447;28;20040;-55
2023/06/08 03:01:00;;;;;;;6.40;3.97;;;9.30;99.90;;;;;;5070461;28;20496;-56
2023/06/08 03:03:58;;;;;;;6.75;3.70;;;9.30;99.90;;;;;;5070555;28;20052;-56
2023/06/08 03:06:36;;;;;;;6.68;4.00;;;9.30;99.90;;;;;;5070663;28;20508;-56
2023/06/08 03:09:07;;;;;;;6.80;3.90;;;9.30;99.90;;;;;;5070686;28;20491;-55
2023/06/08 03:11:37;;;;;;;8.40;4.75;;;9.30;99.90;;;;;;5071096;28;20051;-56
2023/06/08 03:14:10;;;;;;;5.63;3.30;;;9.30;99.90;;;;;;5090817;28;20044;-56
2023/06/08 03:16:38;;;;;;;5.70;3.65;;;9.30;99.90;;;;;;5080661;28;20048;-56
2023/06/08 03:19:06;;;;;;;4.72;3.70;;;9.20;99.90;;;;;;5070593;28;20056;-56
2023/06/08 03:21:36;;;;;;;8.02;4.28;;;9.20;99.90;;;;;;5070419;28;20045;-56
2023/06/08 03:24:05;;;;;;;;;;;9.20;99.90;;;;;;5070556;28;20415;-56
2023/06/08 03:26:35;;;;;;;4.78;3.10;;;9.20;99.90;;;;;;5070146;28;19921;-56
2023/06/08 03:29:06;;;;;;;4.93;3.42;;;9.20;99.90;;;;;;5068217;28;20484;-56
2023/06/08 03:31:36;;;;;;;5.60;3.70;;;9.10;99.90;;;;;;5067822;28;20048;-55
2023/06/08 03:34:07;;;;;;;6.70;3.83;;;9.10;99.90;;;;;;5050238;28;20064;-55
2023/06/08 03:36:38;;;;;;;5.07;3.50;;;9.10;99.90;;;;;;5065005;28;20656;-56
2023/06/08 03:39:16;;;;;;;7.97;3.63;;;9.10;99.90;;;;;;5071525;28;20044;-56
2023/06/08 03:41:45;;;;;;;5.60;3.65;;;9.10;99.90;;;;;;5073145;28;20508;-56
2023/06/08 03:44:14;;;;;;;9.82;4.40;;;9.10;99.90;;;;;;5072154;28;20045;-56
2023/06/08 03:46:42;;;;;;;5.38;4.13;;;9.10;99.90;;;;;;5051449;28;20049;-56
2023/06/08 03:49:10;;;;;;;5.65;3.50;;;9.10;99.90;;;;;;5051404;28;20049;-56
2023/06/08 03:51:39;;;;;;;5.47;3.90;;;9.00;99.90;;;;;;5063234;28;20377;-54
2023/06/08 03:54:08;;;;;;;5.75;3.30;;;9.00;99.90;;;;;;5069994;28;20471;-56
2023/06/08 03:56:35;;;;;;;8.02;4.50;;;9.00;99.90;;;;;;5069818;28;20384;-54
2023/06/08 03:59:06;;;;;;;10.05;4.20;;;9.00;99.90;;;;;;5070020;28;20480;-56
2023/06/08 04:01:35;;;;;;;7.28;4.05;;;9.00;99.90;;;;;;5070032;28;20048;-56
2023/06/08 04:04:04;;;;;;;;;;;9.10;99.90;;;;;;5070381;28;20614;-56
2023/06/08 04:06:33;;;;;;;5.65;3.80;;;9.10;99.90;;;;;;5070000;28;19939;-57
2023/06/08 04:09:04;;;;;;;10.43;4.53;;;9.10;99.90;;;;;;5070068;28;20040;-56
2023/06/08 04:11:33;;;;;;;5.32;4.18;;;9.10;99.90;;;;;;5070360;28;20036;-54
2023/06/08 04:14:01;;;;;;;5.85;3.58;;;9.20;99.90;;;;;;5078798;28;20052;-56
2023/06/08 04:16:31;;;;;;;7.17;3.53;;;9.30;99.90;;;;;;5069739;28;20488;-56
2023/06/08 04:19:00;;;;;;;6.95;3.20;;;9.30;99.90;;;;;;5069729;28;20049;-56
2023/06/08 04:21:29;;;;;;;6.30;3.90;;;9.40;99.90;;;;;;5069018;28;20051;-57
2023/06/08 04:24:08;;;;;;;7.30;4.07;;;9.40;99.90;;;;;;5069629;28;20048;-56
2023/06/08 04:26:39;;;;;;;9.05;4.15;;;9.40;99.90;;;;;;5069545;28;20064;-54
2023/06/08 04:29:08;;;;;;;6.10;3.92;;;9.50;99.90;;;;;;5049749;28;20048;-55
2023/06/08 04:31:39;;;;;;;8.60;4.03;;;9.50;99.90;;;;;;5049865;28;20045;-55
2023/06/08 04:34:08;;;;;;;6.75;4.28;;;9.60;99.90;;;;;;5049865;28;20052;-55
2023/06/08 04:36:36;;;;;;;5.25;4.10;;;9.60;99.90;;;;;;5032932;28;20056;-55
2023/06/08 04:39:04;;;;;;;6.75;3.92;;;;;;;;;;5057513;28;20048;-55
2023/06/08 04:41:33;;;;;;;5.85;3.92;;;9.70;99.90;;;;;;5073699;28;20480;-56
2023/06/08 04:44:03;;;;;;;6.82;4.32;;;9.70;99.90;;;;;;5076556;28;20048;-55
2023/06/08 04:46:33;;;;;;;;;;;9.80;99.90;;;;;;5079180;28;20048;-56
2023/06/08 04:49:01;;;;;;;6.20;3.77;;;9.80;99.90;;;;;;5054247;28;20391;-56
2023/06/08 04:51:32;;;;;;;8.63;3.78;;;9.90;99.90;;;;;;5070584;28;20670;-56
2023/06/08 04:54:00;;;;;;;6.13;3.75;;;9.90;99.90;;;;;;5068460;28;20044;-56
2023/06/08 04:56:29;;;;;;;7.07;4.60;;;9.90;99.90;;;;;;5069279;28;20040;-56
2023/06/08 04:58:57;;;;;;;6.95;3.75;;;10.00;99.90;;;;;;5070527;28;20044;-57
2023/06/08 05:01:26;;;;;;;6.07;4.05;;;10.00;99.90;;;;;;5070773;28;20041;-56
2023/06/08 05:03:54;;;;;;;8.02;4.40;;;10.10;99.90;;;;;;5039492;28;20427;-56
2023/06/08 05:06:22;;;;;;;8.55;5.07;;;10.10;99.90;;;;;;5046408;28;20416;-56
2023/06/08 05:08:50;;;;;;;5.72;3.90;;;10.10;99.90;;;;;;5062461;28;20047;-58
2023/06/08 05:11:18;;;;;;;7.43;4.10;;;10.10;99.90;;;;;;5067778;28;20060;-57
2023/06/08 05:13:45;;;;;;;6.82;4.10;;;10.10;99.90;;;;;;5072129;28;20041;-55
2023/06/08 05:16:15;;;;;;;8.98;4.07;;;10.20;99.90;;;;;;5066503;28;20044;-56
2023/06/08 05:18:44;;;;;;;5.63;3.70;;;10.20;99.90;;;;;;5062506;28;20041;-58
2023/06/08 05:21:12;;;;;;;6.55;3.63;;;10.30;99.90;;;;;;5068399;28;20293;-56
2023/06/08 05:23:41;;;;;;;4.60;3.42;;;10.30;99.90;;;;;;5070425;28;20052;-55
2023/06/08 05:26:09;;;;;;;7.47;3.70;;;10.30;99.90;;;;;;5069104;28;20052;-55
2023/06/08 05:28:37;;;;;;;4.82;3.17;;;10.30;99.90;;;;;;5059456;28;20477;-56
2023/06/08 05:31:05;;;;;;;5.75;3.03;;;10.30;99.90;;;;;;5046940;28;20058;-56
2023/06/08 05:33:34;;;;;;;6.82;3.90;;;10.30;99.90;;;;;;5052002;28;20049;-56
2023/06/08 05:36:02;;;;;;;6.85;3.42;;;10.40;99.90;;;;;;5053881;28;20044;-58
2023/06/08 05:38:32;;;;;;;4.68;3.15;;;10.40;99.90;;;;;;5081730;28;20048;-57
2023/06/08 05:41:00;;;;;;;4.85;3.10;;;10.40;99.90;;;;;;5089200;28;20055;-58
2023/06/08 05:43:29;;;;;;;5.07;3.10;;;10.40;99.90;;;;;;5071810;28;20044;-56
2023/06/08 05:45:57;;;;;;;8.63;3.53;;;10.40;99.90;;;;;;5066851;28;20048;-56
2023/06/08 05:48:25;;;;;;;4.50;3.10;;;10.40;99.90;;;;;;5062051;28;20385;-56
2023/06/08 05:50:53;;;;;;;6.43;3.22;;;10.40;99.90;;;;;;5049635;28;20049;-56
2023/06/08 05:53:21;;;;;;;5.35;3.17;;;10.40;99.90;;;;;;5074091;28;20036;-56
2023/06/08 05:55:49;;;;;;;5.13;2.97;;;;;;;;;;5086975;28;20048;-56
2023/06/08 05:58:18;;;;;;;5.47;3.13;;;10.50;99.90;;;;;;5073749;28;20036;-56
2023/06/08 06:00:46;;;;;;;4.15;3.30;;;10.50;99.90;;;;;;5087050;28;20439;-56
2023/06/08 06:03:14;;;;;;;8.18;3.30;;;10.60;99.90;;;;;;5054070;28;20112;-57
2023/06/08 06:05:43;;;;;;;5.63;3.60;;;10.60;99.90;;;;;;5054706;28;20056;-55
2023/06/08 06:08:11;;;;;;;6.25;3.00;;;10.60;99.90;;;;;;5059621;28;20048;-56
2023/06/08 06:10:39;;;;;;;5.50;2.92;;;10.60;99.90;;;;;;5068272;28;20041;-57
2023/06/08 06:13:07;;;;;;;4.65;3.22;;;10.60;99.90;;;;;;5080097;28;20059;-56
2023/06/08 06:15:35;;;;;;;8.45;3.25;;;;;;;;;;5082734;28;20053;-57
2023/06/08 06:18:03;;;;;;;7.03;3.67;;;10.70;99.90;;;;;;5067087;28;20044;-57
2023/06/08 06:20:31;;;;;;;5.45;3.55;;;10.70;99.90;;;;;;5061961;28;20071;-57
2023/06/08 06:23:01;;;;;;;4.53;3.42;;;10.70;99.90;;;;;;5064803;28;20393;-57
2023/06/08 06:25:35;;;;;;;5.15;3.10;;;10.70;99.90;;;;;;5064807;28;20059;-57
2023/06/08 06:28:03;;;;;;;9.07;3.63;;;10.80;99.90;;;;;;5069018;28;20044;-58
2023/06/08 06:30:31;;;;;;;10.25;3.95;;;10.80;99.90;;;;;;5051114;28;20057;-56
2023/06/08 06:33:00;;;;;;;5.05;3.45;;;10.80;99.90;;;;;;5067981;28;20055;-59
2023/06/08 06:35:28;;;;;;;6.72;3.30;;;10.90;99.90;;;;;;5049098;28;20061;-57
2023/06/08 06:37:56;;;;;;;5.15;3.22;;;10.90;99.90;;;;;;5074541;28;20491;-56
2023/06/08 06:40:24;;;;;;;5.00;3.58;;;10.90;99.90;;;;;;5089402;28;20391;-57
2023/06/08 06:42:52;;;;;;;6.32;2.90;;;10.90;99.90;;;;;;5085448;28;20051;-57
2023/06/08 06:45:32;;;;;;;6.22;2.67;;;10.90;99.90;;;;;;5051476;28;20044;-57
2023/06/08 06:48:00;;;;;;;5.72;2.88;;;10.90;99.90;;;;;;5067109;28;20052;-57
2023/06/08 06:50:28;;;;;;;5.30;2.55;;;10.90;99.90;;;;;;5057836;28;20499;-57
2023/06/08 06:52:57;;;;;;;3.97;2.87;;;10.90;99.90;;;;;;5060614;28;20044;-57
2023/06/08 06:55:25;;;;;;;9.10;4.05;;;10.90;99.90;;;;;;5068825;28;20063;-57
2023/06/08 06:57:53;;;;;;;6.68;3.47;;;11.00;99.90;;;;;;5075802;28;20036;-56
2023/06/08 07:00:21;;;;;;;4.25;3.17;;;11.00;99.90;;;;;;5088451;28;20048;-56
2023/06/08 07:02:50;;;;;;;4.35;3.00;;;11.10;99.90;;;;;;5084872;28;20043;-56
2023/06/08 07:05:19;;;;;;;6.38;3.13;;;11.10;99.90;;;;;;5049089;28;20626;-56
2023/06/08 07:07:46;;;;;;;9.67;3.40;;;11.10;99.90;;;;;;5059697;28;20044;-57
2023/06/08 07:10:14;;;;;;;5.93;3.03;;;11.20;99.90;;;;;;5083786;28;20041;-57
2023/06/08 07:12:42;;;;;;;6.97;3.25;;;11.30;99.90;;;;;;5073695;28;20040;-55
2023/06/08 07:15:11;;;;;;;6.95;3.38;;;11.30;99.90;;;;;;5085419;28;20503;-56
2023/06/08 07:17:39;;;;;;;5.78;3.45;;;11.40;99.90;;;;;;5068493;28;20044;-56
2023/06/08 07:20:08;;;;;;;5.35;2.67;;;11.40;99.90;;;;;;5056207;28;20934;-57
2023/06/08 07:22:36;;;;;;;7.97;2.90;;;11.50;99.90;;;;;;5067689;28;20055;-55
2023/06/08 07:25:25;;;;;;;7.57;4.05;;;11.60;99.90;;;;;;5066952;28;20067;-57
2023/06/08 07:28:12;;;;;;;5.35;3.25;;;11.60;99.90;;;;;;5063781;28;20047;-58
2023/06/08 07:30:40;;;;;;;6.32;3.78;;;11.70;99.90;;;;;;5068126;28;20463;-57
2023/06/08 07:33:08;;;;;;;7.15;2.75;;;11.70;99.90;;;;;;5067748;28;20055;-57
2023/06/08 07:35:36;;;;;;;5.25;3.05;;;11.70;99.90;;;;;;5049550;28;20049;-57
2023/06/08 07:38:06;;;;;;;10.95;3.47;;;11.80;99.90;;;;;;5065647;28;20071;-57
2023/06/08 07:40:34;;;;;;;6.63;3.15;;;11.80;99.90;;;;;;5088100;28;20043;-55
2023/06/08 07:43:02;;;;;;;4.60;3.35;;;11.80;99.90;;;;;;5077314;28;20040;-55
2023/06/08 07:45:30;;;;;;;9.48;3.72;;;11.80;99.90;;;;;;5067740;28;20403;-57
2023/06/08 07:47:59;;;;;;;6.57;3.50;;;11.80;99.90;;;;;;5067311;28;20043;-57
2023/06/08 07:50:27;;;;;;;6.45;3.17;;;11.80;99.90;;;;;;5057777;28;20045;-57
2023/06/08 07:52:55;;;;;;;7.97;3.75;;;11.90;99.90;;;;;;5066770;28;20071;-57
2023/06/08 07:55:23;;;;;;;6.68;3.35;;;12.00;99.90;;;;;;5068015;28;20043;-57
2023/06/08 07:57:51;;;;;;;3.17;2.75;;;12.10;99.90;;;;;;5067445;28;20052;-57
2023/06/08 08:00:20;;;;;;;5.80;3.03;;;12.10;99.90;;;;;;5058964;28;20036;-56
2023/06/08 08:02:49;;;;;;;7.18;3.10;;;12.20;99.90;;;;;;5053298;28;20041;-57
2023/06/08 08:05:17;;;;;;;8.80;3.15;;;12.20;99.90;;;;;;5054373;28;20056;-56
2023/06/08 08:07:45;;;;;;;7.80;3.13;;;12.30;99.90;;;;;;5058606;28;20052;-56
2023/06/08 08:10:13;;;;;;;7.00;2.58;;;12.30;99.90;;;;;;5088074;28;20060;-57
2023/06/08 08:12:42;;;;;;;4.60;2.40;;;12.30;99.90;;;;;;5087612;28;20040;-57
2023/06/08 08:15:10;;;;;;;7.50;3.40;;;12.30;99.90;;;;;;5082009;28;20391;-56
2023/06/08 08:17:38;;;;;;;6.70;3.03;;;12.40;99.90;;;;;;5076507;28;20285;-56
2023/06/08 08:20:07;;;;;;;4.18;2.50;;;12.40;99.90;;;;;;5069853;28;20555;-57
2023/06/08 08:22:37;;;;;;;5.18;3.20;;;12.60;99.90;;;;;;5068875;28;20059;-57
2023/06/08 08:25:05;;;;;;;6.72;3.50;;;12.60;99.90;;;;;;5072348;28;20082;-57
2023/06/08 08:27:34;;;;;;;6.03;2.72;;;12.70;99.90;;;;;;5058060;28;20636;-57
2023/06/08 08:30:02;;;;;;;10.05;2.75;;;12.80;99.90;;;;;;5092261;28;20417;-56
2023/06/08 08:32:30;;;;;;;5.28;2.72;;;12.90;99.90;;;;;;5083405;28;20040;-57
2023/06/08 08:34:58;;;;;;;7.88;3.13;;;13.00;99.90;;;;;;5062708;28;20047;-57
2023/06/08 08:37:26;;;;;;;7.88;3.05;;;13.10;99.90;;;;;;5054212;28;20215;-58
2023/06/08 08:39:54;;;;;;;4.35;2.72;;;12.40;99.90;;;;;;5071268;28;20498;-58
2023/06/08 08:42:26;;;;;;;4.80;2.85;;;13.10;99.90;;;;;;5071183;28;20075;-57
2023/06/08 08:44:56;;;;;;;8.32;3.15;;;13.10;99.90;;;;;;5066800;28;20514;-57
2023/06/08 08:47:26;;;;;;;6.03;2.85;;;13.10;99.90;;;;;;5054266;28;20396;-56
2023/06/08 08:50:05;;;;;;;7.35;2.92;;;13.20;99.90;;;;;;5064050;28;20393;-56
2023/06/08 08:52:37;;;;;;;4.47;2.53;;;13.30;99.90;;;;;;5038590;28;20063;-57
2023/06/08 08:55:06;;;;;;;6.57;2.95;;;13.40;99.90;;;;;;5069915;28;20434;-55
2023/06/08 08:57:42;;;;;;;4.78;2.63;;;13.50;99.90;;;;;;5072230;28;20048;-57
2023/06/08 09:00:10;;;;;;;6.45;3.15;;;13.60;99.90;;;;;;5088526;28;20455;-57
2023/06/08 09:02:38;;;;;;;7.78;3.15;;;13.60;99.90;;;;;;5084970;28;20048;-56
2023/06/08 09:05:06;;;;;;;8.10;3.70;;;13.70;99.90;;;;;;5063202;28;20053;-56
2023/06/08 09:07:35;;;;;;;6.80;3.00;;;13.70;99.90;;;;;;5055108;28;20056;-56
2023/06/08 09:10:21;;;;;;;5.03;3.10;;;13.80;99.90;;;;;;5068451;28;20045;-56
2023/06/08 09:12:51;;;;;;;4.97;3.22;;;13.90;99.90;;;;;;5067378;28;20052;-57
2023/06/08 09:15:32;;;;;;;5.57;2.92;;;14.00;99.90;;;;;;5069485;28;20048;-56
2023/06/08 09:18:13;;;;;;;5.10;2.75;;;14.10;99.90;;;;;;5070468;28;20054;-58
2023/06/08 09:20:42;;;;;;;8.07;3.35;;;14.30;99.90;;;;;;5057889;28;20049;-57
2023/06/08 09:23:15;;;;;;;5.15;3.20;;;14.20;99.90;;;;;;5054826;28;20041;-56
2023/06/08 09:25:46;;;;;;;7.18;3.13;;;14.30;99.90;;;;;;5049607;28;20055;-56
2023/06/08 09:28:17;;;;;;;4.43;3.20;;;14.20;99.90;;;;;;5061021;28;20139;-57
2023/06/08 09:30:48;;;;;;;6.63;3.30;;;14.30;99.90;;;;;;5061993;28;20045;-57
2023/06/08 09:33:27;;;;;;;6.97;3.30;;;14.50;99.90;;;;;;5064518;28;20041;-57
2023/06/08 09:35:58;;;;;;;8.27;3.50;;;14.50;99.90;;;;;;5057441;28;20061;-56
2023/06/08 09:38:28;;;;;;;4.53;3.05;;;14.70;99.90;;;;;;5072743;28;20320;-57
2023/06/08 09:41:25;;;;;;;7.87;3.33;;;14.80;99.90;;;;;;5089378;28;20044;-57
2023/06/08 09:43:53;;;;;;;3.90;3.05;;;14.90;99.90;;;;;;5069366;28;20296;-57
2023/06/08 09:46:46;;;;;;;8.82;4.55;;;15.00;99.90;;;;;;5069685;28;20040;-57
2023/06/08 09:49:16;;;;;;;5.78;3.20;;;15.10;99.90;;;;;;5087774;28;20040;-57
2023/06/08 09:51:51;;;;;;;7.43;3.28;;;15.10;99.90;;;;;;5061527;28;20033;-58
2023/06/08 09:54:27;;;;;;;7.63;3.25;;;15.20;99.90;;;;;;5086852;28;20044;-58
2023/06/08 09:56:57;;;;;;;8.05;3.05;;;15.20;99.90;;;;;;5084456;28;20036;-57
2023/06/08 09:59:38;;;;;;;5.18;3.17;;;15.20;99.90;;;;;;5066418;28;20048;-56
2023/06/08 10:02:34;;;;;;;5.35;2.90;;;15.20;99.90;;;;;;5051244;28;20057;-57
2023/06/08 10:05:12;;;;;;;10.77;3.88;;;15.40;99.90;;;;;;5083203;28;20052;-57
2023/06/08 10:07:44;;;;;;;6.05;3.63;;;15.40;99.90;;;;;;5065724;28;20040;-57
2023/06/08 10:10:21;;;;;;;7.95;2.85;;;15.50;99.90;;;;;;5090112;28;20051;-57
2023/06/08 10:12:51;;;;;;;4.60;2.95;;;15.60;99.90;;;;;;5089283;28;20043;-56
2023/06/08 10:15:21;;;;;;;6.83;2.97;;;15.70;99.90;;;;;;5085262;28;20055;-56
2023/06/08 10:17:51;;;;;;;5.80;3.35;;;15.70;99.90;;;;;;5073542;28;20940;-57
2023/06/08 10:20:20;;;;;;;5.25;3.22;;;15.70;99.90;;;;;;5062721;28;20508;-55
2023/06/08 10:22:49;;;;;;;10.65;3.10;;;15.80;99.90;;;;;;5055982;28;20044;-56
2023/06/08 10:25:18;;;;;;;4.43;3.15;;;15.90;99.90;;;;;;5069316;28;20044;-57
2023/06/08 10:27:51;;;;;;;5.63;2.72;;;16.10;99.90;;;;;;5067617;28;20048;-56
2023/06/08 10:30:30;;;;;;;5.72;2.90;;;16.20;99.90;;;;;;5069375;28;20045;-57
2023/06/08 10:33:21;;;;;;;5.60;3.40;;;16.40;99.90;;;;;;5059363;28;20079;-57
2023/06/08 10:36:02;;;;;;;7.03;2.88;;;16.30;99.90;;;;;;5074061;28;20044;-56
2023/06/08 10:38:36;;;;;;;5.43;3.10;;;16.40;99.90;;;;;;5063171;28;20041;-57
2023/06/08 10:41:04;;;;;;;4.95;3.00;;;16.40;99.90;;;;;;5069270;28;20056;-58
2023/06/08 10:43:32;;;;;;;3.55;2.53;;;16.50;99.90;;;;;;5080460;28;20040;-58
2023/06/08 10:46:03;;;;;;;5.47;3.03;;;16.60;99.90;;;;;;5087982;28;20055;-58
2023/06/08 10:48:39;;;;;;;5.07;3.10;;;16.90;99.90;;;;;;5080360;28;20048;-58
2023/06/08 10:51:11;;;;;;;7.68;3.20;;;16.90;99.90;;;;;;5067858;28;20059;-57
2023/06/08 10:53:59;;;;;;;6.70;3.67;;;17.00;99.90;;;;;;5068588;28;20044;-58
2023/06/08 10:56:29;;;;;;;7.57;3.10;;;17.10;99.90;;;;;;5061554;28;20037;-57
2023/06/08 10:58:57;;;;;;;4.28;2.95;;;17.20;99.90;;;;;;5060238;28;20061;-59
2023/06/08 11:01:31;;;;;;;10.35;3.75;;;17.20;99.90;;;;;;5055004;28;20041;-57
2023/06/08 11:04:00;;;;;;;10.07;3.10;;;17.30;99.90;;;;;;5067194;28;20072;-60
2023/06/08 11:06:33;;;;;;;10.35;3.78;;;17.30;99.90;;;;;;5057569;28;20045;-57
2023/06/08 11:09:03;;;;;;;11.95;3.45;;;17.50;99.90;;;;;;5064344;28;20408;-56
2023/06/08 11:11:31;;;;;;;6.15;3.10;;;17.70;99.90;;;;;;5068187;28;20048;-57
2023/06/08 11:14:03;;;;;;;9.30;3.17;;;17.90;99.90;;;;;;5066936;28;20059;-61
2023/06/08 11:16:30;;;;;;;11.95;3.25;;;18.00;99.90;;;;;;5082930;28;20502;-58
2023/06/08 11:18:59;;;;;;;7.15;3.53;;;18.10;99.90;;;;;;5072495;28;20480;-58
2023/06/08 11:21:27;;;;;;;6.78;3.45;;;18.10;99.90;;;;;;5058843;28;20052;-57
2023/06/08 11:23:55;;;;;;;5.72;3.70;;;18.20;99.90;;;;;;5071269;28;20407;-56
2023/06/08 11:26:23;;;;;;;7.50;3.38;;;18.20;99.90;;;;;;5067474;28;20048;-57
2023/06/08 11:28:50;;;;;;;7.57;2.88;;;18.30;99.90;;;;;;5066199;28;20056;-56
2023/06/08 11:31:19;;;;;;;6.28;3.08;;;18.30;99.90;;;;;;5065777;28;20048;-57
2023/06/08 11:33:49;;;;;;;6.90;3.75;;;18.50;99.90;;;;;;5067899;28;20127;-57
2023/06/08 11:36:17;;;;;;;7.13;3.45;;;18.70;99.80;;;;;;5061062;28;20060;-57
2023/06/08 11:38:49;;;;;;;8.60;2.65;;;18.80;99.50;;;;;;5075195;28;20052;-58
2023/06/08 11:41:20;;;;;;;5.68;3.50;;;18.90;99.60;;;;;;5060868;28;20056;-58
2023/06/08 11:43:51;;;;;;;5.88;3.22;;;19.10;99.40;;;;;;5068065;28;20052;-58
2023/06/08 11:46:20;;;;;;;8.63;3.80;;;19.20;98.70;;;;;;5080667;28;20059;-57
2023/06/08 11:48:48;;;;;;;10.05;3.75;;;19.40;98.30;;;;;;5072689;28;20052;-58
2023/06/08 11:51:19;;;;;;;8.38;4.05;;;19.50;97.10;;;;;;5062317;28;20056;-57
2023/06/08 11:53:47;;;;;;;9.32;3.20;;;19.50;96.40;;;;;;5062556;28;20044;-58
2023/06/08 11:56:15;;;;;;;7.35;3.25;;;19.80;96.60;;;;;;5068188;28;20051;-57
2023/06/08 11:58:46;;;;;;;7.80;3.13;;;19.90;96.40;;;;;;5080728;28;20044;-57
2023/06/08 12:01:16;;;;;;;6.95;3.50;;;20.20;96.30;;;;;;5087091;28;20048;-57
2023/06/08 12:03:49;;;;;;;5.03;3.17;;;20.40;95.60;;;;;;5086813;28;20496;-58
2023/06/08 12:06:24;;;;;;;7.47;3.30;;;20.50;94.90;;;;;;5077669;28;20056;-58
2023/06/08 12:08:54;;;;;;;6.93;3.03;;;20.60;94.40;;;;;;5062030;28;20052;-58
2023/06/08 12:11:23;;;;;;;8.40;3.55;;;20.80;94.30;;;;;;5061520;28;20036;-58
2023/06/08 12:13:54;;;;;;;4.85;2.92;;;21.00;94.50;;;;;;5064326;28;20049;-59
2023/06/08 12:16:22;;;;;;;6.40;3.55;;;21.30;93.80;;;;;;5080374;28;20067;-58
2023/06/08 12:18:50;;;;;;;5.57;2.95;;;21.50;93.60;;;;;;5070922;28;20467;-57
2023/06/08 12:21:19;;;;;;;6.45;3.30;;;21.80;93.00;;;;;;5062367;28;20041;-57
2023/06/08 12:23:47;;;;;;;5.45;3.00;;;21.90;91.60;;;;;;5061779;28;20048;-58
2023/06/08 12:26:15;;;;;;;8.65;3.50;;;22.00;91.40;;;;;;5067755;28;20044;-59
2023/06/08 12:28:43;;;;;;;6.75;3.40;;;22.10;90.50;;;;;;5080304;28;20443;-57
2023/06/08 12:31:12;;;;;;;5.47;3.67;;;22.20;89.70;;;;;;5071154;28;20044;-59
2023/06/08 12:33:41;;;;;;;7.50;3.88;;;22.10;89.80;;;;;;5079377;28;20363;-59
2023/06/08 12:36:10;;;;;;;5.93;2.90;;;22.20;89.70;;;;;;5079423;28;20052;-59
2023/06/08 12:38:39;;;;;;;;;;;22.40;90.40;;;;;;5057070;28;20048;-58
2023/06/08 12:41:06;;;;;;;5.97;3.38;;;22.60;88.70;;;;;;5056173;28;20357;-58
2023/06/08 12:43:34;;;;;;;7.38;3.47;;;22.80;87.90;;;;;;5072134;28;20056;-58
2023/06/08 12:46:02;;;;;;;5.25;3.08;;;22.90;87.90;;;;;;5082065;28;20049;-60
2023/06/08 12:48:30;;;;;;;6.20;3.08;;;23.20;87.40;;;;;;5070038;28;20048;-59
2023/06/08 12:50:58;;;;;;;6.80;3.13;;;23.30;86.30;;;;;;5066671;28;20057;-59
2023/06/08 12:53:27;;;;;;;8.27;3.00;;;23.60;85.30;;;;;;5058384;28;20055;-59
2023/06/08 12:55:56;;;;;;;7.17;2.93;;;23.70;83.70;;;;;;5067613;28;20040;-59
2023/06/08 12:58:24;;;;;;;4.10;2.75;;;23.70;83.20;;;;;;5077229;28;20055;-59
2023/06/08 13:00:56;;;;;;;7.07;2.75;;;;;;;;;;5087839;28;20063;-59
2023/06/08 13:03:24;;;;;;;9.90;3.17;;;23.70;82.90;;;;;;5086783;28;20419;-56
2023/06/08 13:05:52;;;;;;;8.13;3.00;;;23.90;83.00;;;;;;5091261;28;20059;-58
2023/06/08 13:08:20;;;;;;;5.35;3.03;;;24.10;82.10;;;;;;5062663;28;20044;-59